Nearby METAR Reports

 

EGNX - East Midlands, United Kingdom
Distance from station: W 5mi, 8km
Updated: 07/05/2021 17:50
Partly cloudy
Partly cloudy
 Wind from W
Wind: W 10 mph , 17 km/h
Temperature: 12°C
Dew Point: 0°C
Humidity: 44%
Barometer: 1014 hPa
Clouds: Partly cloudy
Visibility: 6 miles , 10 km
Cloud details: Partly cloudy 1463 m
2021/05/07 16:50 EGNX 071650Z 27009KT 9999 SCT048 12/00 Q1014
EGBB - Birmingham Airpo, United Kingdom
Distance from station: SW 34mi, 55km
Updated: 07/05/2021 17:50
Clear
Clear
 Wind from SW
Wind: SW 8 mph , 13 km/h
Temperature: 13°C
Dew Point: -3°C
Humidity: 33%
Barometer: 1014 hPa
Summary: Clear
Visibility: greater than 7 miles , 10 km
2021/05/07 16:50 EGBB 071650Z 23007KT 150V290 CAVOK 13/M03 Q1014
 
EGXP - Scampton RAF, United Kingdom
Distance from station: NE 41mi, 66km
Updated: 07/05/2021 17:50
Partly cloudy
Partly cloudy
 Wind from W
Wind: W 10 mph , 17 km/h
Temperature: 12°C
Dew Point: 1°C
Humidity: 47%
Barometer: 1014 hPa
Clouds: Partly cloudy
Visibility: 6 miles , 10 km
Cloud details: Few Clouds 1524 m
Partly cloudy 2438 m
2021/05/07 16:50 EGXP 071650Z AUTO 27009KT 9999 // FEW050/// SCT080/// 12/01 Q1014
EGCN - Doncaster Sheffi, United Kingdom
Distance from station: N 46mi, 74km
Updated: 07/05/2021 17:50
Clear
Clear
 Wind from W
Wind: W 10 mph , 17 km/h
Temperature: 13°C
Dew Point: 1°C
Humidity: 44%
Barometer: 1015 hPa
Summary: Clear
Visibility: greater than 7 miles , 10 km
2021/05/07 16:50 EGCN 071650Z 26009KT CAVOK 13/01 Q1015
 
EGPB - Sumburgh, United Kingdom
Distance from station: N 491mi, 791km
Updated: 07/05/2021 17:50
Nearby showers, Partly cloudy
Nearby showers, Partly cloudy
 Wind from NE
Wind: NE 10 mph , 17 km/h
Temperature: 6°C
Wind Chill: 3°C
Dew Point: 3°C
Humidity: 81%
Barometer: 1011 hPa
Summary: Nearby Showers
Clouds: Partly cloudy
Visibility: 6 miles , 10 km
Cloud details: Partly cloudy 366 m
Partly cloudy 610 m
2021/05/07 16:50 EGPB 071650Z 05009KT 9999 VCSH SCT012CB SCT020 06/03 Q1011
EGPO - Stornoway, United Kingdom
Distance from station: NW 561mi, 903km
Updated: 07/05/2021 17:50
Partly cloudy
Partly cloudy
 Wind from NW
Wind: NW 10 mph , 17 km/h
Temperature: 9°C
Wind Chill: 7°C
Dew Point: 0°C
Humidity: 54%
Barometer: 1013 hPa
Clouds: Partly cloudy
Visibility: 6 miles , 10 km
Cloud details: Few Clouds 762 m
Partly cloudy 1067 m
2021/05/07 16:50 EGPO 071650Z 32009KT 9999 FEW025 SCT035 09/M00 Q1013